Time;durP1;ratioP1;P1;durP2;ratioP2;P2;SDS_P1;SDS_P2;PMS_P1;PMS_P2;Temp;Humidity;BMP_temperature;BMP_pressure;BME280_temperature;BME280_humidity;BME280_pressure;Samples;Min_cycle;Max_cycle;Signal;HPM_P1;HPM_P2
2022/11/22 00:00:17;;;;;;;75.30;51.05;;;15.80;68.80;;;;;;4993454;28;90364;-57
2022/11/22 00:02:43;;;;;;;71.55;50.55;;;15.80;68.50;;;;;;4995788;27;89322;-57
2022/11/22 00:05:09;;;;;;;73.88;50.35;;;15.80;68.60;;;;;;4986384;28;90158;-56
2022/11/22 00:07:36;;;;;;;71.88;50.50;;;15.80;68.60;;;;;;4993114;28;90034;-56
2022/11/22 00:10:03;;;;;;;72.10;50.33;;;15.70;68.90;;;;;;4992596;28;92635;-54
2022/11/22 00:12:29;;;;;;;72.82;50.55;;;15.70;68.80;;;;;;5000509;28;89907;-56
2022/11/22 00:14:54;;;;;;;71.03;50.60;;;15.70;68.80;;;;;;4983711;28;89907;-57
2022/11/22 00:17:20;;;;;;;75.72;50.75;;;15.70;69.00;;;;;;4993672;28;90246;-56
2022/11/22 00:19:45;;;;;;;72.65;49.97;;;15.70;69.00;;;;;;4989213;28;90081;-57
2022/11/22 00:22:11;;;;;;;71.80;50.55;;;15.70;68.90;;;;;;4994453;27;90926;-54
2022/11/22 00:24:37;;;;;;;70.75;50.85;;;15.60;69.00;;;;;;4983870;28;90414;-55
2022/11/22 00:27:02;;;;;;;70.35;49.95;;;15.60;69.00;;;;;;4987894;27;90075;-57
2022/11/22 00:29:28;;;;;;;72.68;50.85;;;15.60;68.90;;;;;;4978346;28;91175;-54
2022/11/22 00:31:53;;;;;;;71.75;50.25;;;15.60;68.90;;;;;;4992067;28;89422;-56
2022/11/22 00:34:19;;;;;;;72.50;50.53;;;15.60;68.80;;;;;;4985728;28;90962;-52
2022/11/22 00:36:45;;;;;;;73.38;50.55;;;15.60;68.80;;;;;;4991384;28;90027;-57
2022/11/22 00:39:10;;;;;;;71.55;50.60;;;15.60;68.80;;;;;;4983201;28;94271;-57
2022/11/22 00:41:36;;;;;;;71.40;50.72;;;15.60;68.90;;;;;;4993124;28;90472;-56
2022/11/22 00:44:01;;;;;;;73.72;50.35;;;15.50;68.90;;;;;;4993879;28;90860;-55
2022/11/22 00:46:27;;;;;;;71.47;50.40;;;15.60;68.70;;;;;;4985994;28;92607;-55
2022/11/22 00:48:53;;;;;;;71.68;50.45;;;15.50;68.60;;;;;;4988919;28;90079;-54
2022/11/22 00:51:18;;;;;;;75.03;50.35;;;15.50;68.70;;;;;;4986983;28;93620;-56
2022/11/22 00:53:44;;;;;;;73.53;50.40;;;15.50;68.60;;;;;;4986732;28;93285;-56
2022/11/22 00:56:10;;;;;;;72.13;50.58;;;15.40;68.90;;;;;;4994112;27;89726;-56
2022/11/22 00:58:35;;;;;;;73.68;50.85;;;15.50;68.90;;;;;;4991751;28;92729;-56
2022/11/22 01:01:01;;;;;;;70.85;50.65;;;15.40;69.00;;;;;;4990759;28;90110;-56
2022/11/22 01:03:26;;;;;;;72.78;50.13;;;15.40;69.10;;;;;;4987994;28;95663;-55
2022/11/22 01:05:52;;;;;;;72.03;50.17;;;15.40;69.10;;;;;;4988887;28;90043;-56
2022/11/22 01:08:18;;;;;;;71.13;49.80;;;15.40;69.10;;;;;;4994940;28;90020;-55
2022/11/22 01:10:43;;;;;;;72.85;50.38;;;15.40;68.80;;;;;;4990593;28;89774;-55
2022/11/22 01:13:10;;;;;;;69.55;50.10;;;15.40;68.80;;;;;;4982100;28;93508;-55
2022/11/22 01:15:36;;;;;;;74.07;50.20;;;15.40;69.10;;;;;;4988827;28;89804;-55
2022/11/22 01:18:02;;;;;;;69.13;50.15;;;15.30;69.00;;;;;;4988927;28;95203;-55
2022/11/22 01:20:29;;;;;;;72.28;50.10;;;15.30;68.80;;;;;;5000864;27;91073;-57
2022/11/22 01:22:56;;;;;;;70.85;50.00;;;15.30;68.90;;;;;;4986840;28;90632;-57
2022/11/22 01:25:21;;;;;;;70.70;50.28;;;15.30;68.90;;;;;;4982164;28;90861;-57
2022/11/22 01:27:49;;;;;;;70.40;49.75;;;15.30;69.00;;;;;;4987671;28;89401;-55
2022/11/22 01:30:16;;;;;;;71.82;49.83;;;15.30;68.90;;;;;;4987162;28;90132;-55
2022/11/22 01:32:41;;;;;;;69.68;49.70;;;15.30;68.90;;;;;;4989366;28;90312;-55
2022/11/22 01:35:08;;;;;;;72.05;50.17;;;15.30;69.00;;;;;;4989330;28;91053;-56
2022/11/22 01:37:33;;;;;;;71.38;50.17;;;15.30;69.00;;;;;;4987067;28;89971;-57
2022/11/22 01:39:59;;;;;;;70.18;50.33;;;15.30;68.90;;;;;;4982328;28;89332;-54
2022/11/22 01:42:44;;;;;;;71.40;49.97;;;15.30;69.00;;;;;;4989483;28;92228;-55
2022/11/22 01:45:28;;;;;;;71.15;49.85;;;15.20;68.90;;;;;;4983134;28;90224;-56
2022/11/22 01:48:15;;;;;;;69.95;49.88;;;15.20;68.90;;;;;;4991625;28;91010;-56
2022/11/22 01:50:43;;;;;;;70.47;49.35;;;15.20;68.90;;;;;;4988773;28;89999;-55
2022/11/22 01:53:16;;;;;;;70.05;49.78;;;15.20;68.90;;;;;;4992838;28;89916;-54
2022/11/22 01:55:43;;;;;;;70.88;50.40;;;15.20;69.00;;;;;;4986897;28;90641;-55
2022/11/22 01:58:10;;;;;;;70.00;50.10;;;15.20;69.00;;;;;;4982985;28;89895;-56
2022/11/22 02:00:37;;;;;;;68.78;49.65;;;15.20;68.90;;;;;;4980088;28;90212;-54
2022/11/22 02:03:08;;;;;;;69.50;50.08;;;15.10;69.20;;;;;;4986122;28;90310;-56
2022/11/22 02:05:35;;;;;;;70.20;50.20;;;15.10;69.10;;;;;;4986934;28;90987;-56
2022/11/22 02:08:13;;;;;;;69.95;49.85;;;15.10;69.00;;;;;;4981541;28;91584;-54
2022/11/22 02:10:44;;;;;;;70.35;50.30;;;15.10;68.80;;;;;;4983711;28;90501;-56
2022/11/22 02:13:11;;;;;;;;;;;15.10;68.90;;;;;;4986408;28;92185;-55
2022/11/22 02:15:37;;;;;;;69.00;50.33;;;15.10;69.00;;;;;;4989841;28;90026;-54
2022/11/22 02:18:03;;;;;;;71.57;50.03;;;15.10;69.00;;;;;;4989759;28;91259;-55
2022/11/22 02:20:28;;;;;;;68.78;49.53;;;15.10;69.00;;;;;;4982759;28;90591;-55
2022/11/22 02:23:19;;;;;;;69.32;49.97;;;15.00;69.10;;;;;;4982687;28;89632;-55
2022/11/22 02:25:55;;;;;;;69.28;49.58;;;15.10;69.20;;;;;;4985032;28;90211;-56
2022/11/22 02:28:20;;;;;;;69.78;49.97;;;15.10;68.80;;;;;;4983444;28;90720;-56
2022/11/22 02:30:46;;;;;;;69.00;49.55;;;15.00;68.90;;;;;;4985386;28;89244;-56
2022/11/22 02:33:12;;;;;;;70.30;49.85;;;15.00;69.10;;;;;;4982886;28;89778;-55
2022/11/22 02:35:39;;;;;;;68.90;49.83;;;15.00;68.90;;;;;;4980334;28;93222;-54
2022/11/22 02:38:09;;;;;;;70.22;50.15;;;15.00;68.80;;;;;;4989543;28;91051;-55
2022/11/22 02:40:58;;;;;;;68.30;49.47;;;15.00;68.90;;;;;;4992377;28;92322;-56
2022/11/22 02:43:28;;;;;;;69.95;49.65;;;15.00;68.90;;;;;;4986676;28;90181;-56
2022/11/22 02:45:54;;;;;;;70.88;49.25;;;15.00;69.00;;;;;;4983492;28;89457;-56
2022/11/22 02:48:20;;;;;;;67.93;49.25;;;14.90;69.10;;;;;;4985910;27;93995;-54
2022/11/22 02:50:46;;;;;;;69.82;49.78;;;14.90;69.10;;;;;;4990885;28;89670;-55
2022/11/22 02:53:12;;;;;;;68.93;49.55;;;14.90;69.00;;;;;;4988177;28;90178;-56
2022/11/22 02:55:38;;;;;;;73.22;50.35;;;15.00;69.00;;;;;;4980307;28;92420;-54
2022/11/22 02:58:04;;;;;;;69.40;50.08;;;15.00;69.00;;;;;;4977584;28;96084;-55
2022/11/22 03:00:32;;;;;;;70.07;49.63;;;14.90;68.80;;;;;;4981632;28;89618;-54
2022/11/22 03:02:57;;;;;;;69.32;49.75;;;15.00;69.70;;;;;;4985379;28;94113;-55
2022/11/22 03:05:23;;;;;;;71.13;49.65;;;14.90;69.00;;;;;;4983405;28;90795;-55
2022/11/22 03:07:49;;;;;;;68.82;49.63;;;14.90;68.90;;;;;;4983893;28;90151;-54
2022/11/22 03:10:15;;;;;;;69.07;49.72;;;14.90;69.00;;;;;;4989343;28;89466;-55
2022/11/22 03:12:41;;;;;;;69.53;49.92;;;14.90;68.80;;;;;;4982653;28;90024;-55
2022/11/22 03:15:07;;;;;;;69.18;49.70;;;14.90;68.90;;;;;;4978768;28;89977;-56
2022/11/22 03:17:33;;;;;;;73.53;50.13;;;14.90;68.80;;;;;;4980197;28;92278;-54
2022/11/22 03:19:58;;;;;;;68.72;49.65;;;14.90;68.90;;;;;;4990877;28;88958;-55
2022/11/22 03:22:24;;;;;;;69.05;49.67;;;14.80;69.00;;;;;;4976972;28;90563;-56
2022/11/22 03:24:50;;;;;;;71.03;49.83;;;14.80;68.90;;;;;;4982835;28;91104;-53
2022/11/22 03:27:16;;;;;;;70.45;49.97;;;14.90;69.00;;;;;;4981113;28;91156;-54
2022/11/22 03:29:41;;;;;;;68.57;49.63;;;14.80;68.90;;;;;;4986758;28;90283;-54
2022/11/22 03:32:07;;;;;;;69.75;50.03;;;14.80;68.70;;;;;;4983595;28;91160;-58
2022/11/22 03:34:32;;;;;;;68.18;49.75;;;14.80;69.00;;;;;;4982301;28;90249;-55
2022/11/22 03:36:58;;;;;;;69.90;49.90;;;14.80;68.90;;;;;;4986070;27;90950;-56
2022/11/22 03:39:24;;;;;;;68.28;49.55;;;14.80;68.80;;;;;;4987307;28;90140;-54
2022/11/22 03:41:49;;;;;;;68.60;49.72;;;14.80;68.80;;;;;;4988829;28;90493;-56
2022/11/22 03:44:15;;;;;;;69.28;50.05;;;14.80;68.90;;;;;;4991717;28;90055;-57
2022/11/22 03:46:41;;;;;;;69.60;49.78;;;14.80;68.90;;;;;;4990985;28;90086;-56
2022/11/22 03:49:06;;;;;;;67.82;49.38;;;14.80;68.80;;;;;;4982196;28;89917;-55
2022/11/22 03:51:32;;;;;;;68.55;49.45;;;14.80;68.70;;;;;;4982798;28;91759;-55
2022/11/22 03:53:58;;;;;;;69.35;49.67;;;14.80;68.70;;;;;;4988150;28;91953;-55
2022/11/22 03:56:23;;;;;;;68.68;49.92;;;14.80;68.60;;;;;;4988164;28;91923;-55
2022/11/22 03:58:49;;;;;;;69.18;49.53;;;14.80;68.80;;;;;;4981252;28;89525;-55
2022/11/22 04:01:15;;;;;;;68.68;49.95;;;14.80;68.50;;;;;;4986043;28;90109;-55
2022/11/22 04:03:40;;;;;;;68.18;49.58;;;14.80;68.70;;;;;;4990668;28;90802;-55
2022/11/22 04:06:06;;;;;;;70.07;49.83;;;14.80;68.50;;;;;;4991100;28;94849;-57
2022/11/22 04:08:32;;;;;;;68.70;49.80;;;14.80;68.70;;;;;;4994560;28;89797;-56
2022/11/22 04:10:57;;;;;;;68.05;50.40;;;14.80;68.60;;;;;;4987324;28;89716;-56
2022/11/22 04:15:05;;;;;;;69.28;49.95;;;14.80;68.60;;;;;;4982598;28;95267;-56
2022/11/22 04:16:09;;;;;;;69.20;49.25;;;14.80;68.50;;;;;;4987183;28;92592;-54
2022/11/22 04:18:34;;;;;;;69.10;49.50;;;14.80;68.70;;;;;;4987127;28;90024;-54
2022/11/22 04:25:12;;;;;;;69.63;50.08;;;14.80;68.50;;;;;;4983255;28;92565;-57
2022/11/22 04:26:30;;;;;;;70.07;50.15;;;14.80;68.50;;;;;;4985776;28;90444;-54
2022/11/22 04:28:55;;;;;;;68.10;49.60;;;14.80;68.40;;;;;;4987654;28;91150;-55
2022/11/22 04:34:05;;;;;;;69.85;49.55;;;14.80;68.50;;;;;;4988145;28;89347;-55
2022/11/22 04:36:31;;;;;;;69.63;49.78;;;14.80;68.60;;;;;;4984667;28;89816;-55
2022/11/22 04:38:56;;;;;;;68.85;49.63;;;14.80;68.50;;;;;;4989019;28;89664;-56
2022/11/22 04:41:22;;;;;;;67.50;49.13;;;14.70;68.60;;;;;;4991857;28;91021;-55
2022/11/22 04:46:32;;;;;;;68.85;49.50;;;14.70;68.50;;;;;;4989227;28;89592;-56
2022/11/22 04:48:58;;;;;;;69.40;50.00;;;14.70;68.60;;;;;;4985802;28;92986;-56
2022/11/22 04:54:08;;;;;;;68.35;49.20;;;14.60;68.70;;;;;;4992567;28;92261;-56
2022/11/22 04:56:33;;;;;;;68.28;49.50;;;14.70;68.60;;;;;;4993515;28;90520;-55
2022/11/22 04:58:59;;;;;;;69.20;49.47;;;14.70;68.40;;;;;;4988370;28;90447;-56
2022/11/22 05:01:24;;;;;;;68.22;49.25;;;14.60;68.50;;;;;;4986667;28;91145;-56
2022/11/22 05:03:50;;;;;;;69.10;49.80;;;14.60;68.50;;;;;;4987528;28;93484;-54
2022/11/22 05:06:16;;;;;;;69.43;50.00;;;14.70;68.50;;;;;;4988811;28;91653;-55
2022/11/22 05:08:41;;;;;;;69.15;50.00;;;14.50;68.70;;;;;;4981948;28;91634;-56
2022/11/22 05:11:07;;;;;;;67.72;49.53;;;14.40;69.20;;;;;;4987295;28;91000;-55
2022/11/22 05:13:34;;;;;;;68.18;49.08;;;14.40;69.60;;;;;;4976917;28;90737;-52
2022/11/22 05:16:01;;;;;;;68.35;49.60;;;14.30;69.50;;;;;;4970711;28;90011;-55
2022/11/22 05:18:28;;;;;;;67.90;49.80;;;14.30;70.00;;;;;;4977465;28;89725;-54
2022/11/22 05:20:54;;;;;;;67.65;49.17;;;14.30;70.00;;;;;;4990529;28;90020;-55
2022/11/22 05:26:06;;;;;;;67.07;49.40;;;14.30;70.00;;;;;;4987288;28;95691;-50
2022/11/22 05:28:34;;;;;;;67.63;49.33;;;14.30;69.90;;;;;;4983589;28;91102;-55
2022/11/22 05:31:06;;;;;;;69.53;49.67;;;14.20;70.20;;;;;;4985250;28;91313;-54
2022/11/22 05:33:31;;;;;;;67.95;49.50;;;14.20;70.10;;;;;;4989277;28;90636;-55
2022/11/22 05:36:00;;;;;;;68.15;49.58;;;14.20;70.00;;;;;;4984853;28;89976;-53
2022/11/22 05:38:26;;;;;;;70.00;49.67;;;14.20;70.20;;;;;;4999194;28;90046;-54
2022/11/22 05:40:52;;;;;;;67.72;49.50;;;14.20;70.10;;;;;;4988963;27;92068;-54
2022/11/22 05:43:17;;;;;;;67.55;49.45;;;14.20;70.30;;;;;;4994015;27;89434;-56
2022/11/22 05:45:43;;;;;;;70.50;49.55;;;14.20;70.20;;;;;;4983918;28;89920;-55
2022/11/22 05:48:08;;;;;;;67.18;49.45;;;14.20;70.10;;;;;;4989119;28;91894;-55
2022/11/22 05:50:34;;;;;;;67.18;49.17;;;14.20;70.00;;;;;;4993711;28;90591;-55
2022/11/22 05:53:01;;;;;;;67.72;49.45;;;14.20;70.10;;;;;;4977539;28;90387;-55
2022/11/22 05:55:28;;;;;;;67.63;49.20;;;14.20;70.10;;;;;;4982614;28;91025;-56
2022/11/22 05:57:53;;;;;;;66.03;49.20;;;14.20;70.20;;;;;;4987373;28;90167;-54
2022/11/22 06:00:19;;;;;;;67.72;49.85;;;14.10;70.20;;;;;;4993639;28;89740;-55
2022/11/22 06:02:45;;;;;;;66.88;49.28;;;14.20;70.20;;;;;;4985153;28;90894;-53
2022/11/22 06:05:10;;;;;;;68.35;49.40;;;14.20;70.30;;;;;;4990085;28;90626;-52
2022/11/22 06:07:36;;;;;;;68.20;49.28;;;14.20;70.20;;;;;;4988938;27;91490;-55
2022/11/22 06:10:02;;;;;;;67.57;49.38;;;14.10;70.20;;;;;;4987914;28;95096;-54
2022/11/22 06:12:27;;;;;;;68.32;49.53;;;14.20;70.30;;;;;;4986899;28;88945;-55
2022/11/22 06:14:53;;;;;;;67.47;49.22;;;14.20;70.30;;;;;;4986441;28;94618;-55
2022/11/22 06:17:19;;;;;;;67.35;49.58;;;14.20;70.30;;;;;;4989075;28;89780;-56
2022/11/22 06:19:44;;;;;;;68.00;49.55;;;14.20;70.40;;;;;;4983446;28;91461;-53
2022/11/22 06:22:10;;;;;;;68.25;49.30;;;14.20;70.30;;;;;;4983983;28;91059;-54
2022/11/22 06:24:36;;;;;;;68.88;50.05;;;14.20;70.30;;;;;;4986849;28;92723;-53
2022/11/22 06:27:01;;;;;;;69.07;50.20;;;14.10;70.10;;;;;;4987657;28;92445;-55
2022/11/22 06:29:28;;;;;;;68.00;50.10;;;14.10;70.10;;;;;;4984669;28;91123;-54
2022/11/22 06:31:54;;;;;;;68.30;49.92;;;14.10;70.10;;;;;;4984018;28;90325;-54
2022/11/22 06:34:19;;;;;;;70.05;50.75;;;14.10;70.00;;;;;;4994493;27;90011;-53
2022/11/22 06:36:45;;;;;;;69.97;49.83;;;14.10;70.10;;;;;;4981724;28;88636;-54
2022/11/22 06:39:11;;;;;;;68.70;49.58;;;14.10;70.10;;;;;;4981570;28;93649;-53
2022/11/22 06:41:37;;;;;;;68.15;49.55;;;14.10;69.90;;;;;;4980957;28;89919;-53
2022/11/22 06:44:05;;;;;;;69.22;49.15;;;14.10;70.00;;;;;;4985948;28;91110;-54
2022/11/22 06:46:31;;;;;;;67.50;49.55;;;14.10;70.00;;;;;;4988343;28;89911;-54
2022/11/22 06:48:57;;;;;;;68.75;50.33;;;14.10;70.10;;;;;;4985272;28;91497;-53
2022/11/22 06:51:25;;;;;;;68.03;49.85;;;14.10;70.10;;;;;;4982880;28;89792;-55
2022/11/22 06:53:53;;;;;;;70.18;50.58;;;14.10;70.00;;;;;;4986621;28;89734;-55
2022/11/22 06:56:21;;;;;;;68.07;49.90;;;14.00;69.80;;;;;;4985551;27;89753;-51
2022/11/22 06:58:49;;;;;;;70.82;50.47;;;14.10;70.40;;;;;;4981848;28;89790;-53
2022/11/22 07:01:24;;;;;;;69.10;50.55;;;14.10;70.30;;;;;;4985547;28;89273;-52
2022/11/22 07:03:53;;;;;;;70.22;50.60;;;14.10;70.30;;;;;;4985363;28;91655;-53
2022/11/22 07:06:18;;;;;;;71.07;50.40;;;14.20;70.10;;;;;;4988699;28;89777;-52
2022/11/22 07:08:45;;;;;;;70.63;50.97;;;14.10;70.20;;;;;;4986882;28;90569;-55
2022/11/22 07:11:14;;;;;;;71.72;51.53;;;14.20;70.30;;;;;;4989837;28;92216;-58
2022/11/22 07:13:40;;;;;;;73.00;52.25;;;14.20;70.20;;;;;;4996069;28;89775;-53
2022/11/22 07:16:09;;;;;;;69.38;50.83;;;14.20;70.20;;;;;;4983701;27;90156;-54
2022/11/22 07:18:34;;;;;;;70.85;50.70;;;14.10;69.80;;;;;;4995320;28;90091;-53
2022/11/22 07:21:02;;;;;;;71.63;50.13;;;14.10;70.00;;;;;;4990055;28;89830;-54
2022/11/22 07:23:28;;;;;;;68.68;50.05;;;14.10;70.10;;;;;;4992821;28;90019;-53
2022/11/22 07:25:54;;;;;;;69.50;50.53;;;14.00;69.90;;;;;;4986476;28;90493;-54
2022/11/22 07:28:20;;;;;;;69.53;50.80;;;14.00;70.20;;;;;;4985753;28;91009;-51
2022/11/22 07:30:45;;;;;;;68.43;50.00;;;14.00;70.10;;;;;;4990138;28;90139;-54
2022/11/22 07:33:11;;;;;;;69.40;50.13;;;14.00;70.00;;;;;;4997255;27;90704;-54
2022/11/22 07:35:37;;;;;;;71.40;50.90;;;14.00;70.10;;;;;;4991944;28;90793;-54
2022/11/22 07:38:03;;;;;;;70.78;50.83;;;14.00;70.10;;;;;;4987691;28;90401;-53
2022/11/22 07:40:28;;;;;;;72.47;51.35;;;14.00;70.00;;;;;;4988598;28;92683;-49
2022/11/22 07:42:54;;;;;;;69.32;50.28;;;14.00;70.00;;;;;;5009127;27;89851;-53
2022/11/22 07:45:20;;;;;;;70.15;50.55;;;14.00;70.00;;;;;;4993438;28;89707;-54
2022/11/22 07:47:46;;;;;;;70.28;50.30;;;14.00;70.00;;;;;;4990258;27;90082;-52
2022/11/22 07:50:12;;;;;;;68.53;50.42;;;14.00;70.60;;;;;;4996844;27;89886;-55
2022/11/22 07:52:37;;;;;;;69.13;50.47;;;14.00;69.80;;;;;;4991908;28;90159;-54
2022/11/22 07:55:05;;;;;;;68.97;50.45;;;14.00;69.80;;;;;;4988176;28;91073;-58
2022/11/22 07:57:31;;;;;;;70.35;50.60;;;14.00;69.90;;;;;;4995570;27;92490;-53
2022/11/22 07:59:57;;;;;;;69.00;50.47;;;14.00;70.60;;;;;;4995142;27;90651;-54
2022/11/22 08:02:23;;;;;;;68.72;50.45;;;14.00;69.80;;;;;;4990433;28;89887;-54
2022/11/22 08:04:48;;;;;;;68.47;50.28;;;14.00;69.80;;;;;;4985232;28;91355;-54
2022/11/22 08:07:14;;;;;;;68.63;50.10;;;14.00;69.80;;;;;;4991410;28;89560;-54
2022/11/22 08:09:40;;;;;;;70.70;50.85;;;14.00;69.70;;;;;;4986703;28;89979;-51
2022/11/22 08:12:05;;;;;;;68.47;50.35;;;14.00;69.80;;;;;;4990933;28;90181;-54
2022/11/22 08:14:31;;;;;;;68.72;50.67;;;14.00;69.60;;;;;;4989013;27;88937;-54
2022/11/22 08:16:57;;;;;;;69.28;50.03;;;14.00;69.60;;;;;;4988057;28;90370;-53
2022/11/22 08:19:23;;;;;;;68.65;50.20;;;14.00;69.50;;;;;;5009403;28;90450;-54
2022/11/22 08:21:49;;;;;;;67.97;49.90;;;14.00;69.40;;;;;;4984531;28;92482;-55
2022/11/22 08:24:15;;;;;;;67.78;49.40;;;14.00;69.30;;;;;;4986387;28;90498;-54
2022/11/22 08:26:41;;;;;;;67.50;49.67;;;14.10;69.40;;;;;;4992934;28;90265;-54
2022/11/22 08:29:09;;;;;;;68.05;49.78;;;14.10;69.50;;;;;;4991322;28;90034;-55
2022/11/22 08:31:35;;;;;;;68.25;50.20;;;14.00;69.30;;;;;;4984595;27;89813;-51
2022/11/22 08:34:01;;;;;;;69.55;50.60;;;14.00;69.30;;;;;;4990730;28;90513;-54
2022/11/22 08:36:27;;;;;;;68.40;50.30;;;14.00;69.30;;;;;;4992919;28;90246;-53
2022/11/22 08:38:52;;;;;;;68.28;49.75;;;14.10;69.30;;;;;;4990938;28;90115;-53
2022/11/22 08:41:18;;;;;;;69.72;50.38;;;14.10;69.40;;;;;;4988519;27;90201;-54
2022/11/22 08:43:44;;;;;;;68.32;50.40;;;14.10;69.20;;;;;;4992656;28;89992;-54
2022/11/22 08:46:10;;;;;;;67.55;50.05;;;14.10;69.20;;;;;;4982365;27;91070;-54
2022/11/22 08:48:37;;;;;;;70.28;50.67;;;14.10;69.20;;;;;;4994750;28;91237;-54
2022/11/22 08:51:05;;;;;;;67.18;49.97;;;14.10;69.00;;;;;;4983082;28;89791;-56
2022/11/22 08:53:33;;;;;;;68.65;50.40;;;14.10;69.10;;;;;;4991677;28;89744;-54
2022/11/22 08:56:00;;;;;;;68.38;50.40;;;14.10;68.90;;;;;;4983928;28;92448;-55
2022/11/22 08:58:26;;;;;;;68.97;50.17;;;14.10;68.90;;;;;;4980349;28;90099;-54
2022/11/22 09:00:51;;;;;;;68.43;50.28;;;14.20;68.80;;;;;;4988795;27;90881;-55
2022/11/22 09:03:17;;;;;;;67.65;49.67;;;14.20;68.80;;;;;;4991715;28;89479;-55
2022/11/22 09:05:43;;;;;;;70.80;50.15;;;14.20;68.80;;;;;;4984735;28;90584;-54
2022/11/22 09:08:09;;;;;;;68.68;50.45;;;14.20;68.90;;;;;;4989023;28;89811;-54
2022/11/22 09:10:34;;;;;;;69.70;50.58;;;14.20;68.80;;;;;;4991889;28;90734;-51
2022/11/22 09:13:00;;;;;;;68.07;50.08;;;14.20;68.70;;;;;;4986059;28;90163;-53
2022/11/22 09:15:25;;;;;;;68.97;50.05;;;14.20;68.70;;;;;;4992475;28;94051;-54
2022/11/22 09:17:51;;;;;;;70.28;50.58;;;14.20;68.70;;;;;;4988260;28;92578;-53
2022/11/22 09:20:17;;;;;;;69.28;50.03;;;14.20;68.80;;;;;;4989983;27;89841;-54
2022/11/22 09:22:42;;;;;;;69.68;50.05;;;14.20;68.70;;;;;;4993208;28;89753;-55
2022/11/22 09:25:09;;;;;;;67.88;49.88;;;14.20;68.70;;;;;;4995375;28;89868;-55
2022/11/22 09:27:34;;;;;;;68.43;50.40;;;14.20;68.60;;;;;;4980656;28;90885;-55
2022/11/22 09:30:00;;;;;;;67.88;49.95;;;14.20;68.60;;;;;;4991976;28;94501;-54
2022/11/22 09:32:26;;;;;;;69.90;50.30;;;14.20;68.70;;;;;;4985876;28;89595;-54
2022/11/22 09:34:52;;;;;;;68.20;49.92;;;14.20;68.70;;;;;;4989428;28;91145;-53
2022/11/22 09:37:18;;;;;;;68.45;50.10;;;14.20;68.70;;;;;;4985258;28;90736;-54
2022/11/22 09:39:47;;;;;;;69.53;50.35;;;14.20;68.70;;;;;;4988315;28;90915;-52
2022/11/22 09:42:32;;;;;;;69.55;50.47;;;14.20;68.70;;;;;;4993601;28;91005;-51
2022/11/22 09:45:25;;;;;;;68.45;49.97;;;14.20;68.60;;;;;;5000314;27;90493;-54
2022/11/22 09:48:03;;;;;;;69.20;49.90;;;14.20;68.50;;;;;;4977261;28;94880;-55
2022/11/22 09:51:00;;;;;;;68.70;50.28;;;14.20;68.70;;;;;;4991178;28;89482;-53
2022/11/22 09:53:33;;;;;;;67.85;49.90;;;14.20;68.60;;;;;;4983886;28;88876;-52
2022/11/22 09:56:03;;;;;;;67.75;49.95;;;14.20;68.50;;;;;;4985563;28;89867;-53
2022/11/22 09:58:36;;;;;;;67.72;49.83;;;14.30;68.60;;;;;;4985163;28;91376;-53
2022/11/22 10:01:21;;;;;;;68.10;49.92;;;14.30;68.40;;;;;;4991554;28;93943;-51
2022/11/22 10:03:58;;;;;;;68.47;50.33;;;14.30;68.40;;;;;;4996037;28;89618;-53
2022/11/22 10:06:36;;;;;;;68.80;50.10;;;14.30;68.40;;;;;;4988748;28;90804;-53
2022/11/22 10:09:20;;;;;;;69.13;49.65;;;14.30;68.40;;;;;;4987768;28;93791;-56
2022/11/22 10:11:58;;;;;;;68.40;50.05;;;14.30;68.50;;;;;;4989602;28;89800;-53
2022/11/22 10:14:54;;;;;;;68.20;49.92;;;14.30;68.60;;;;;;4987167;28;89661;-55
2022/11/22 10:17:40;;;;;;;67.75;49.33;;;14.30;68.60;;;;;;4986364;28;91302;-53
2022/11/22 10:20:11;;;;;;;68.30;49.88;;;14.30;68.60;;;;;;4999503;28;90812;-53
2022/11/22 10:22:37;;;;;;;69.10;50.03;;;14.30;68.40;;;;;;4983601;28;89932;-52
2022/11/22 10:25:16;;;;;;;67.25;49.63;;;14.30;68.40;;;;;;4985951;28;92702;-51
2022/11/22 10:27:43;;;;;;;68.32;49.97;;;14.30;68.40;;;;;;4987386;28;90912;-53
2022/11/22 10:30:21;;;;;;;69.05;49.85;;;14.30;68.50;;;;;;4984189;28;92237;-52
2022/11/22 10:33:14;;;;;;;69.97;50.40;;;14.30;68.30;;;;;;4986664;28;90690;-52
2022/11/22 10:35:42;;;;;;;67.68;49.55;;;14.30;68.30;;;;;;4984462;28;91808;-53
2022/11/22 10:38:24;;;;;;;68.07;49.88;;;14.30;68.30;;;;;;4988583;28;90716;-51
2022/11/22 10:40:53;;;;;;;67.90;50.10;;;14.30;68.40;;;;;;4995053;27;90097;-53
2022/11/22 10:43:32;;;;;;;68.93;49.80;;;14.30;68.30;;;;;;4988982;28;90153;-55
2022/11/22 10:46:14;;;;;;;68.15;49.58;;;14.30;68.30;;;;;;4992581;28;88910;-53
2022/11/22 10:48:46;;;;;;;68.15;49.65;;;14.30;68.20;;;;;;4988457;28;90436;-52
2022/11/22 10:51:22;;;;;;;68.47;49.92;;;14.40;68.10;;;;;;4990488;28;91065;-53
2022/11/22 10:54:03;;;;;;;68.28;49.97;;;14.30;68.30;;;;;;4980880;28;93501;-50
2022/11/22 10:56:39;;;;;;;68.47;49.85;;;14.30;68.20;;;;;;4990584;28;90361;-56
2022/11/22 10:59:22;;;;;;;68.53;50.42;;;14.30;68.20;;;;;;4979219;28;90460;-52
2022/11/22 11:02:10;;;;;;;68.15;49.85;;;14.30;68.30;;;;;;4990113;28;90149;-56
2022/11/22 11:04:38;;;;;;;68.68;50.25;;;14.30;68.20;;;;;;4989095;28;89933;-53
2022/11/22 11:07:10;;;;;;;68.32;49.72;;;14.30;68.10;;;;;;4995712;28;89585;-52
2022/11/22 11:09:41;;;;;;;68.20;49.97;;;14.40;68.20;;;;;;4980726;27;89739;-52
2022/11/22 11:12:18;;;;;;;68.97;49.75;;;14.40;68.30;;;;;;4992553;28;90029;-56
2022/11/22 11:15:11;;;;;;;68.32;49.22;;;14.40;68.30;;;;;;4985042;28;89443;-55
2022/11/22 11:17:37;;;;;;;68.25;49.85;;;14.30;68.30;;;;;;4992956;28;95353;-52
2022/11/22 11:20:15;;;;;;;68.03;49.35;;;14.40;68.30;;;;;;4984964;28;90825;-53
2022/11/22 11:22:41;;;;;;;67.85;49.63;;;14.40;68.30;;;;;;4996245;28;89810;-54
2022/11/22 11:25:31;;;;;;;69.28;49.85;;;14.40;68.20;;;;;;4985601;28;89699;-54
2022/11/22 11:28:04;;;;;;;67.70;49.60;;;14.40;68.30;;;;;;4986792;28;89991;-53
2022/11/22 11:30:41;;;;;;;68.88;49.53;;;14.40;68.30;;;;;;4984548;28;89482;-52
2022/11/22 11:33:28;;;;;;;68.20;49.40;;;14.40;68.30;;;;;;4985248;28;91260;-52
2022/11/22 11:36:00;;;;;;;67.82;49.40;;;14.40;68.30;;;;;;4990512;28;90121;-54
2022/11/22 11:38:31;;;;;;;68.00;49.83;;;14.40;68.20;;;;;;4990771;28;90897;-56
2022/11/22 11:40:57;;;;;;;67.82;49.63;;;14.40;68.30;;;;;;4988308;28;89942;-55
2022/11/22 11:43:23;;;;;;;68.63;50.10;;;14.40;68.30;;;;;;4987865;28;90659;-55
2022/11/22 11:45:49;;;;;;;68.30;49.65;;;14.40;68.40;;;;;;4984435;28;90983;-51
2022/11/22 11:48:34;;;;;;;68.20;50.05;;;14.40;68.30;;;;;;4984123;28;90042;-53
2022/11/22 11:51:12;;;;;;;68.53;49.90;;;14.40;68.40;;;;;;4989316;28;90009;-54
2022/11/22 11:53:41;;;;;;;68.15;49.63;;;14.40;68.50;;;;;;4993767;28;92654;-51
2022/11/22 11:56:34;;;;;;;67.88;49.45;;;14.40;68.50;;;;;;4994819;28;89898;-51
2022/11/22 11:59:06;;;;;;;68.40;49.75;;;14.40;68.50;;;;;;4991421;28;89625;-55
2022/11/22 12:01:34;;;;;;;68.15;49.65;;;14.40;68.50;;;;;;4991210;28;91402;-54
2022/11/22 12:04:05;;;;;;;69.10;49.92;;;14.40;68.50;;;;;;4990450;28;89059;-52
2022/11/22 12:06:32;;;;;;;67.95;49.47;;;14.40;68.60;;;;;;4993643;28;90288;-54
2022/11/22 12:08:59;;;;;;;68.18;49.70;;;14.40;68.50;;;;;;4992171;27;89860;-52
2022/11/22 12:11:44;;;;;;;68.82;49.65;;;14.40;68.50;;;;;;4989869;28;91264;-55
2022/11/22 12:14:12;;;;;;;68.22;49.60;;;14.40;68.50;;;;;;4990297;28;92708;-53
2022/11/22 12:16:43;;;;;;;68.47;49.72;;;14.40;68.40;;;;;;4982894;28;90640;-53
2022/11/22 12:19:27;;;;;;;67.88;49.80;;;14.40;68.50;;;;;;4988400;28;92125;-53
2022/11/22 12:22:24;;;;;;;68.82;50.22;;;14.40;68.40;;;;;;4989486;28;90203;-55
2022/11/22 12:24:59;;;;;;;68.82;49.97;;;14.40;68.50;;;;;;4996526;28;90298;-53
2022/11/22 12:27:25;;;;;;;68.55;49.38;;;14.40;68.60;;;;;;4992797;28;89857;-53
2022/11/22 12:29:52;;;;;;;69.40;49.38;;;14.40;68.50;;;;;;4986686;27;92911;-53
2022/11/22 12:32:27;;;;;;;68.43;49.72;;;14.40;68.50;;;;;;4991711;28;91516;-53
2022/11/22 12:34:59;;;;;;;67.57;49.35;;;14.40;68.60;;;;;;4990367;28;91530;-53
2022/11/22 12:37:35;;;;;;;68.60;50.03;;;14.40;68.50;;;;;;4991114;28;92372;-53
2022/11/22 12:40:11;;;;;;;68.13;49.05;;;14.40;68.70;;;;;;4992668;28;89683;-55
2022/11/22 12:42:48;;;;;;;68.88;49.65;;;14.40;68.70;;;;;;4991092;28;89942;-53
2022/11/22 12:45:35;;;;;;;68.95;49.25;;;14.40;68.80;;;;;;4979313;28;90871;-54
2022/11/22 12:48:13;;;;;;;67.63;49.35;;;14.40;68.90;;;;;;4987361;28;90113;-55
2022/11/22 12:50:45;;;;;;;68.18;49.70;;;14.40;68.80;;;;;;4985289;28;90027;-54